sensor_id;sensor_type;location;lat;lon;timestamp;P1;durP1;ratioP1;P2;durP2;ratioP2
24857;SDS011;12935;50.782;6.074;2023-05-07T00:00:45;150.63;;;136.73;;
24857;SDS011;12935;50.782;6.074;2023-05-07T00:03:10;111.37;;;101.27;;
24857;SDS011;12935;50.782;6.074;2023-05-07T00:05:36;118.83;;;107.07;;
24857;SDS011;12935;50.782;6.074;2023-05-07T00:08:02;100.40;;;72.80;;
24857;SDS011;12935;50.782;6.074;2023-05-07T00:10:28;166.80;;;152.80;;
24857;SDS011;12935;50.782;6.074;2023-05-07T00:12:53;172.10;;;156.07;;
24857;SDS011;12935;50.782;6.074;2023-05-07T00:15:19;159.70;;;146.70;;
24857;SDS011;12935;50.782;6.074;2023-05-07T00:17:44;159.43;;;146.47;;
24857;SDS011;12935;50.782;6.074;2023-05-07T00:20:10;130.17;;;118.37;;
24857;SDS011;12935;50.782;6.074;2023-05-07T00:22:35;100.57;;;91.67;;
24857;SDS011;12935;50.782;6.074;2023-05-07T00:25:01;121.03;;;107.90;;
24857;SDS011;12935;50.782;6.074;2023-05-07T00:27:26;107.13;;;97.23;;
24857;SDS011;12935;50.782;6.074;2023-05-07T00:29:51;167.77;;;154.20;;
24857;SDS011;12935;50.782;6.074;2023-05-07T00:32:16;164.63;;;150.37;;
24857;SDS011;12935;50.782;6.074;2023-05-07T00:34:42;150.77;;;137.57;;
24857;SDS011;12935;50.782;6.074;2023-05-07T00:37:08;181.33;;;163.00;;
24857;SDS011;12935;50.782;6.074;2023-05-07T00:39:34;260.83;;;241.63;;
24857;SDS011;12935;50.782;6.074;2023-05-07T00:42:00;188.33;;;174.63;;
24857;SDS011;12935;50.782;6.074;2023-05-07T00:44:26;154.90;;;141.87;;
24857;SDS011;12935;50.782;6.074;2023-05-07T00:46:51;150.17;;;136.73;;
24857;SDS011;12935;50.782;6.074;2023-05-07T00:49:18;218.17;;;202.27;;
24857;SDS011;12935;50.782;6.074;2023-05-07T00:51:44;153.07;;;141.20;;
24857;SDS011;12935;50.782;6.074;2023-05-07T00:54:10;147.63;;;135.33;;
24857;SDS011;12935;50.782;6.074;2023-05-07T00:56:36;142.23;;;126.03;;
24857;SDS011;12935;50.782;6.074;2023-05-07T00:59:02;370.43;;;346.63;;
24857;SDS011;12935;50.782;6.074;2023-05-07T01:01:28;162.73;;;150.70;;
24857;SDS011;12935;50.782;6.074;2023-05-07T01:03:53;127.60;;;116.47;;
24857;SDS011;12935;50.782;6.074;2023-05-07T01:06:18;88.63;;;79.60;;
24857;SDS011;12935;50.782;6.074;2023-05-07T01:08:46;158.53;;;145.73;;
24857;SDS011;12935;50.782;6.074;2023-05-07T01:11:12;89.40;;;80.27;;
24857;SDS011;12935;50.782;6.074;2023-05-07T01:13:38;69.30;;;61.53;;
24857;SDS011;12935;50.782;6.074;2023-05-07T01:16:05;53.07;;;46.73;;
24857;SDS011;12935;50.782;6.074;2023-05-07T01:18:31;69.33;;;43.30;;
24857;SDS011;12935;50.782;6.074;2023-05-07T01:20:57;69.20;;;46.40;;
24857;SDS011;12935;50.782;6.074;2023-05-07T01:23:23;42.37;;;37.23;;
24857;SDS011;12935;50.782;6.074;2023-05-07T01:25:53;54.23;;;37.03;;
24857;SDS011;12935;50.782;6.074;2023-05-07T01:28:19;46.03;;;29.77;;
24857;SDS011;12935;50.782;6.074;2023-05-07T01:30:49;57.93;;;31.00;;
24857;SDS011;12935;50.782;6.074;2023-05-07T01:33:21;37.17;;;18.70;;
24857;SDS011;12935;50.782;6.074;2023-05-07T01:35:48;31.07;;;21.63;;
24857;SDS011;12935;50.782;6.074;2023-05-07T01:38:16;43.20;;;22.67;;
24857;SDS011;12935;50.782;6.074;2023-05-07T01:40:43;78.50;;;28.00;;
24857;SDS011;12935;50.782;6.074;2023-05-07T01:43:08;42.30;;;17.67;;
24857;SDS011;12935;50.782;6.074;2023-05-07T01:45:34;31.37;;;15.77;;
24857;SDS011;12935;50.782;6.074;2023-05-07T01:48:00;91.80;;;23.37;;
24857;SDS011;12935;50.782;6.074;2023-05-07T01:50:26;41.27;;;29.23;;
24857;SDS011;12935;50.782;6.074;2023-05-07T01:52:52;56.43;;;27.63;;
24857;SDS011;12935;50.782;6.074;2023-05-07T01:55:18;41.30;;;21.63;;
24857;SDS011;12935;50.782;6.074;2023-05-07T01:57:44;33.00;;;21.53;;
24857;SDS011;12935;50.782;6.074;2023-05-07T02:00:09;58.97;;;35.20;;
24857;SDS011;12935;50.782;6.074;2023-05-07T02:02:35;35.73;;;25.90;;
24857;SDS011;12935;50.782;6.074;2023-05-07T02:05:00;60.10;;;26.07;;
24857;SDS011;12935;50.782;6.074;2023-05-07T02:07:26;27.77;;;22.73;;
24857;SDS011;12935;50.782;6.074;2023-05-07T02:09:52;47.80;;;35.87;;
24857;SDS011;12935;50.782;6.074;2023-05-07T02:12:17;37.90;;;27.17;;
24857;SDS011;12935;50.782;6.074;2023-05-07T02:14:43;41.03;;;28.47;;
24857;SDS011;12935;50.782;6.074;2023-05-07T02:17:08;53.73;;;29.07;;
24857;SDS011;12935;50.782;6.074;2023-05-07T02:19:33;79.20;;;48.10;;
24857;SDS011;12935;50.782;6.074;2023-05-07T02:21:59;53.60;;;40.40;;
24857;SDS011;12935;50.782;6.074;2023-05-07T02:24:24;57.03;;;37.97;;
24857;SDS011;12935;50.782;6.074;2023-05-07T02:26:50;48.70;;;39.73;;
24857;SDS011;12935;50.782;6.074;2023-05-07T02:29:15;85.40;;;76.87;;
24857;SDS011;12935;50.782;6.074;2023-05-07T02:31:40;75.83;;;68.37;;
24857;SDS011;12935;50.782;6.074;2023-05-07T02:34:05;89.33;;;59.50;;
24857;SDS011;12935;50.782;6.074;2023-05-07T02:36:31;72.97;;;65.83;;
24857;SDS011;12935;50.782;6.074;2023-05-07T02:38:56;98.57;;;87.60;;
24857;SDS011;12935;50.782;6.074;2023-05-07T02:41:21;245.70;;;227.30;;
24857;SDS011;12935;50.782;6.074;2023-05-07T02:43:46;370.30;;;346.43;;
24857;SDS011;12935;50.782;6.074;2023-05-07T02:46:12;312.80;;;291.20;;
24857;SDS011;12935;50.782;6.074;2023-05-07T02:48:37;304.37;;;283.27;;
24857;SDS011;12935;50.782;6.074;2023-05-07T02:51:03;186.73;;;172.90;;
24857;SDS011;12935;50.782;6.074;2023-05-07T02:53:29;253.80;;;236.00;;
24857;SDS011;12935;50.782;6.074;2023-05-07T02:55:58;285.17;;;264.00;;
24857;SDS011;12935;50.782;6.074;2023-05-07T02:58:25;261.93;;;243.77;;
24857;SDS011;12935;50.782;6.074;2023-05-07T03:00:50;235.03;;;217.60;;
24857;SDS011;12935;50.782;6.074;2023-05-07T03:03:16;281.97;;;262.23;;
24857;SDS011;12935;50.782;6.074;2023-05-07T03:05:42;203.67;;;186.43;;
24857;SDS011;12935;50.782;6.074;2023-05-07T03:08:07;263.30;;;241.57;;
24857;SDS011;12935;50.782;6.074;2023-05-07T03:10:33;196.47;;;181.80;;
24857;SDS011;12935;50.782;6.074;2023-05-07T03:12:59;288.30;;;264.93;;
24857;SDS011;12935;50.782;6.074;2023-05-07T03:15:26;215.67;;;199.90;;
24857;SDS011;12935;50.782;6.074;2023-05-07T03:17:51;289.87;;;269.33;;
24857;SDS011;12935;50.782;6.074;2023-05-07T03:20:16;348.77;;;325.97;;
24857;SDS011;12935;50.782;6.074;2023-05-07T03:22:42;250.87;;;232.53;;
24857;SDS011;12935;50.782;6.074;2023-05-07T03:25:08;330.73;;;306.53;;
24857;SDS011;12935;50.782;6.074;2023-05-07T03:27:33;295.57;;;276.23;;
24857;SDS011;12935;50.782;6.074;2023-05-07T03:29:59;462.50;;;430.10;;
24857;SDS011;12935;50.782;6.074;2023-05-07T03:32:25;371.87;;;348.97;;
24857;SDS011;12935;50.782;6.074;2023-05-07T03:34:50;363.20;;;338.73;;
24857;SDS011;12935;50.782;6.074;2023-05-07T03:37:15;340.33;;;319.17;;
24857;SDS011;12935;50.782;6.074;2023-05-07T03:39:41;524.37;;;493.90;;
24857;SDS011;12935;50.782;6.074;2023-05-07T03:42:06;432.33;;;405.80;;
24857;SDS011;12935;50.782;6.074;2023-05-07T03:44:32;402.53;;;378.00;;
24857;SDS011;12935;50.782;6.074;2023-05-07T03:46:57;427.27;;;398.83;;
24857;SDS011;12935;50.782;6.074;2023-05-07T03:49:22;511.90;;;481.53;;
24857;SDS011;12935;50.782;6.074;2023-05-07T03:51:48;455.23;;;426.77;;
24857;SDS011;12935;50.782;6.074;2023-05-07T03:54:13;345.53;;;322.93;;
24857;SDS011;12935;50.782;6.074;2023-05-07T03:56:38;333.73;;;309.97;;
24857;SDS011;12935;50.782;6.074;2023-05-07T03:59:03;806.13;;;762.40;;
24857;SDS011;12935;50.782;6.074;2023-05-07T04:01:29;671.50;;;633.20;;
24857;SDS011;12935;50.782;6.074;2023-05-07T04:03:55;666.57;;;626.20;;
24857;SDS011;12935;50.782;6.074;2023-05-07T04:06:20;414.90;;;389.20;;
24857;SDS011;12935;50.782;6.074;2023-05-07T04:08:45;509.07;;;479.10;;
24857;SDS011;12935;50.782;6.074;2023-05-07T04:11:11;562.23;;;530.20;;
24857;SDS011;12935;50.782;6.074;2023-05-07T04:13:36;842.47;;;798.50;;
24857;SDS011;12935;50.782;6.074;2023-05-07T04:16:02;868.10;;;818.07;;
24857;SDS011;12935;50.782;6.074;2023-05-07T04:18:28;796.47;;;753.73;;
24857;SDS011;12935;50.782;6.074;2023-05-07T04:20:54;801.13;;;757.97;;
24857;SDS011;12935;50.782;6.074;2023-05-07T04:23:19;705.70;;;666.67;;
24857;SDS011;12935;50.782;6.074;2023-05-07T04:25:45;592.07;;;559.50;;
24857;SDS011;12935;50.782;6.074;2023-05-07T04:28:10;658.00;;;620.27;;
24857;SDS011;12935;50.782;6.074;2023-05-07T04:30:36;737.80;;;697.17;;
24857;SDS011;12935;50.782;6.074;2023-05-07T04:33:02;684.93;;;643.20;;
24857;SDS011;12935;50.782;6.074;2023-05-07T04:35:27;628.13;;;592.93;;
24857;SDS011;12935;50.782;6.074;2023-05-07T04:37:52;572.73;;;538.83;;
24857;SDS011;12935;50.782;6.074;2023-05-07T04:40:18;654.80;;;618.43;;
24857;SDS011;12935;50.782;6.074;2023-05-07T04:42:43;378.10;;;353.90;;
24857;SDS011;12935;50.782;6.074;2023-05-07T04:45:08;451.47;;;423.40;;
24857;SDS011;12935;50.782;6.074;2023-05-07T04:47:35;494.57;;;465.10;;
24857;SDS011;12935;50.782;6.074;2023-05-07T04:50:00;504.93;;;475.17;;
24857;SDS011;12935;50.782;6.074;2023-05-07T04:52:27;390.80;;;366.93;;
24857;SDS011;12935;50.782;6.074;2023-05-07T04:54:52;285.60;;;267.23;;
24857;SDS011;12935;50.782;6.074;2023-05-07T04:57:17;250.13;;;232.67;;
24857;SDS011;12935;50.782;6.074;2023-05-07T04:59:43;501.40;;;471.63;;
24857;SDS011;12935;50.782;6.074;2023-05-07T05:02:10;426.13;;;399.17;;
24857;SDS011;12935;50.782;6.074;2023-05-07T05:04:35;378.63;;;354.97;;
24857;SDS011;12935;50.782;6.074;2023-05-07T05:07:01;353.43;;;329.63;;
24857;SDS011;12935;50.782;6.074;2023-05-07T05:09:28;548.40;;;514.47;;
24857;SDS011;12935;50.782;6.074;2023-05-07T05:11:53;426.53;;;400.37;;
24857;SDS011;12935;50.782;6.074;2023-05-07T05:14:19;372.73;;;348.83;;
24857;SDS011;12935;50.782;6.074;2023-05-07T05:16:44;325.00;;;304.17;;
24857;SDS011;12935;50.782;6.074;2023-05-07T05:19:10;454.67;;;426.70;;
24857;SDS011;12935;50.782;6.074;2023-05-07T05:21:35;394.47;;;368.60;;
24857;SDS011;12935;50.782;6.074;2023-05-07T05:24:00;380.90;;;352.90;;
24857;SDS011;12935;50.782;6.074;2023-05-07T05:26:26;290.70;;;269.00;;
24857;SDS011;12935;50.782;6.074;2023-05-07T05:28:51;323.60;;;301.73;;
24857;SDS011;12935;50.782;6.074;2023-05-07T05:31:16;339.83;;;319.17;;
24857;SDS011;12935;50.782;6.074;2023-05-07T05:33:42;434.10;;;406.50;;
24857;SDS011;12935;50.782;6.074;2023-05-07T05:36:09;305.93;;;284.87;;
24857;SDS011;12935;50.782;6.074;2023-05-07T05:38:34;373.10;;;345.80;;
24857;SDS011;12935;50.782;6.074;2023-05-07T05:40:59;407.50;;;382.57;;
24857;SDS011;12935;50.782;6.074;2023-05-07T05:43:25;354.33;;;331.90;;
24857;SDS011;12935;50.782;6.074;2023-05-07T05:45:50;387.93;;;364.03;;
24857;SDS011;12935;50.782;6.074;2023-05-07T05:48:15;327.30;;;305.60;;
24857;SDS011;12935;50.782;6.074;2023-05-07T05:50:41;444.00;;;415.00;;
24857;SDS011;12935;50.782;6.074;2023-05-07T05:53:07;382.93;;;358.37;;
24857;SDS011;12935;50.782;6.074;2023-05-07T05:55:32;297.60;;;278.17;;
24857;SDS011;12935;50.782;6.074;2023-05-07T05:57:59;332.27;;;310.97;;
24857;SDS011;12935;50.782;6.074;2023-05-07T06:00:25;386.23;;;361.57;;
24857;SDS011;12935;50.782;6.074;2023-05-07T06:02:50;425.43;;;397.53;;
24857;SDS011;12935;50.782;6.074;2023-05-07T06:05:15;338.87;;;314.93;;
24857;SDS011;12935;50.782;6.074;2023-05-07T06:07:41;382.47;;;353.87;;
24857;SDS011;12935;50.782;6.074;2023-05-07T06:10:06;395.07;;;365.37;;
24857;SDS011;12935;50.782;6.074;2023-05-07T06:12:32;398.03;;;372.03;;
24857;SDS011;12935;50.782;6.074;2023-05-07T06:14:57;374.20;;;345.47;;
24857;SDS011;12935;50.782;6.074;2023-05-07T06:17:22;246.73;;;228.63;;
24857;SDS011;12935;50.782;6.074;2023-05-07T06:19:48;421.03;;;393.73;;
24857;SDS011;12935;50.782;6.074;2023-05-07T06:22:13;318.70;;;296.73;;
24857;SDS011;12935;50.782;6.074;2023-05-07T06:24:38;313.57;;;289.83;;
24857;SDS011;12935;50.782;6.074;2023-05-07T06:27:03;318.67;;;296.00;;
24857;SDS011;12935;50.782;6.074;2023-05-07T06:29:29;369.57;;;344.57;;
24857;SDS011;12935;50.782;6.074;2023-05-07T06:31:56;335.73;;;311.70;;
24857;SDS011;12935;50.782;6.074;2023-05-07T06:34:21;283.67;;;262.57;;
24857;SDS011;12935;50.782;6.074;2023-05-07T06:36:47;181.03;;;167.63;;
24857;SDS011;12935;50.782;6.074;2023-05-07T06:39:12;383.13;;;356.77;;
24857;SDS011;12935;50.782;6.074;2023-05-07T06:41:37;312.03;;;287.20;;
24857;SDS011;12935;50.782;6.074;2023-05-07T06:44:03;321.10;;;295.30;;
24857;SDS011;12935;50.782;6.074;2023-05-07T06:46:30;246.83;;;228.93;;
24857;SDS011;12935;50.782;6.074;2023-05-07T06:48:55;427.87;;;396.40;;
24857;SDS011;12935;50.782;6.074;2023-05-07T06:51:21;378.70;;;352.80;;
24857;SDS011;12935;50.782;6.074;2023-05-07T06:53:47;468.23;;;439.43;;
24857;SDS011;12935;50.782;6.074;2023-05-07T06:56:12;429.80;;;402.43;;
24857;SDS011;12935;50.782;6.074;2023-05-07T06:58:37;412.40;;;382.30;;
24857;SDS011;12935;50.782;6.074;2023-05-07T07:01:03;457.37;;;423.93;;
24857;SDS011;12935;50.782;6.074;2023-05-07T07:03:28;398.57;;;370.57;;
24857;SDS011;12935;50.782;6.074;2023-05-07T07:05:54;321.77;;;299.10;;
24857;SDS011;12935;50.782;6.074;2023-05-07T07:08:20;306.90;;;285.63;;
24857;SDS011;12935;50.782;6.074;2023-05-07T07:10:46;405.33;;;379.87;;
24857;SDS011;12935;50.782;6.074;2023-05-07T07:13:12;351.23;;;326.53;;
24857;SDS011;12935;50.782;6.074;2023-05-07T07:15:37;362.80;;;335.63;;
24857;SDS011;12935;50.782;6.074;2023-05-07T07:18:02;363.37;;;334.57;;
24857;SDS011;12935;50.782;6.074;2023-05-07T07:20:28;422.73;;;393.67;;
24857;SDS011;12935;50.782;6.074;2023-05-07T07:22:53;364.07;;;338.40;;
24857;SDS011;12935;50.782;6.074;2023-05-07T07:25:18;340.57;;;316.67;;
24857;SDS011;12935;50.782;6.074;2023-05-07T07:27:43;380.80;;;354.60;;
24857;SDS011;12935;50.782;6.074;2023-05-07T07:30:09;365.87;;;338.63;;
24857;SDS011;12935;50.782;6.074;2023-05-07T07:32:35;321.13;;;297.63;;
24857;SDS011;12935;50.782;6.074;2023-05-07T07:35:00;313.37;;;285.73;;
24857;SDS011;12935;50.782;6.074;2023-05-07T07:37:26;296.33;;;274.77;;
24857;SDS011;12935;50.782;6.074;2023-05-07T07:39:51;374.13;;;347.90;;
24857;SDS011;12935;50.782;6.074;2023-05-07T07:42:17;317.53;;;295.50;;
24857;SDS011;12935;50.782;6.074;2023-05-07T07:44:43;319.10;;;293.37;;
24857;SDS011;12935;50.782;6.074;2023-05-07T07:47:08;319.93;;;293.40;;
24857;SDS011;12935;50.782;6.074;2023-05-07T07:49:33;357.63;;;329.30;;
24857;SDS011;12935;50.782;6.074;2023-05-07T07:51:59;304.67;;;280.47;;
24857;SDS011;12935;50.782;6.074;2023-05-07T07:54:24;272.10;;;251.13;;
24857;SDS011;12935;50.782;6.074;2023-05-07T07:56:50;240.53;;;221.30;;
24857;SDS011;12935;50.782;6.074;2023-05-07T07:59:16;297.80;;;276.00;;
24857;SDS011;12935;50.782;6.074;2023-05-07T08:01:43;268.77;;;248.43;;
24857;SDS011;12935;50.782;6.074;2023-05-07T08:04:09;235.17;;;213.90;;
24857;SDS011;12935;50.782;6.074;2023-05-07T08:06:35;223.90;;;206.43;;
24857;SDS011;12935;50.782;6.074;2023-05-07T08:09:00;460.53;;;426.93;;
24857;SDS011;12935;50.782;6.074;2023-05-07T08:11:25;480.70;;;448.70;;
24857;SDS011;12935;50.782;6.074;2023-05-07T08:13:51;447.07;;;418.80;;
24857;SDS011;12935;50.782;6.074;2023-05-07T08:16:16;364.20;;;338.13;;
24857;SDS011;12935;50.782;6.074;2023-05-07T08:18:41;399.00;;;370.13;;
24857;SDS011;12935;50.782;6.074;2023-05-07T08:21:07;385.90;;;356.67;;
24857;SDS011;12935;50.782;6.074;2023-05-07T08:23:32;338.60;;;314.60;;
24857;SDS011;12935;50.782;6.074;2023-05-07T08:25:59;327.13;;;302.47;;
24857;SDS011;12935;50.782;6.074;2023-05-07T08:28:25;240.27;;;222.30;;
24857;SDS011;12935;50.782;6.074;2023-05-07T08:30:50;205.83;;;190.00;;
24857;SDS011;12935;50.782;6.074;2023-05-07T08:33:15;271.70;;;249.93;;
24857;SDS011;12935;50.782;6.074;2023-05-07T08:35:41;233.43;;;215.93;;
24857;SDS011;12935;50.782;6.074;2023-05-07T08:38:06;222.50;;;204.13;;
24857;SDS011;12935;50.782;6.074;2023-05-07T08:40:34;260.07;;;240.90;;
24857;SDS011;12935;50.782;6.074;2023-05-07T08:43:02;232.40;;;211.37;;
24857;SDS011;12935;50.782;6.074;2023-05-07T08:45:30;173.67;;;159.63;;
24857;SDS011;12935;50.782;6.074;2023-05-07T08:48:05;194.43;;;175.57;;
24857;SDS011;12935;50.782;6.074;2023-05-07T08:50:41;216.37;;;198.70;;
24857;SDS011;12935;50.782;6.074;2023-05-07T08:53:06;183.17;;;163.13;;
24857;SDS011;12935;50.782;6.074;2023-05-07T08:55:32;150.10;;;137.30;;
24857;SDS011;12935;50.782;6.074;2023-05-07T08:57:58;166.50;;;150.03;;
24857;SDS011;12935;50.782;6.074;2023-05-07T09:00:23;247.77;;;228.07;;
24857;SDS011;12935;50.782;6.074;2023-05-07T09:02:49;218.97;;;199.27;;
24857;SDS011;12935;50.782;6.074;2023-05-07T09:05:14;214.77;;;195.47;;
24857;SDS011;12935;50.782;6.074;2023-05-07T09:07:40;186.07;;;170.07;;
24857;SDS011;12935;50.782;6.074;2023-05-07T09:10:05;214.23;;;194.90;;
24857;SDS011;12935;50.782;6.074;2023-05-07T09:12:31;171.60;;;157.70;;
24857;SDS011;12935;50.782;6.074;2023-05-07T09:14:58;130.33;;;116.57;;
24857;SDS011;12935;50.782;6.074;2023-05-07T09:17:24;65.57;;;59.00;;
24857;SDS011;12935;50.782;6.074;2023-05-07T09:19:49;122.27;;;111.00;;
24857;SDS011;12935;50.782;6.074;2023-05-07T09:22:15;92.27;;;82.87;;
24857;SDS011;12935;50.782;6.074;2023-05-07T09:24:40;75.63;;;68.17;;
24857;SDS011;12935;50.782;6.074;2023-05-07T09:27:12;65.60;;;59.10;;
24857;SDS011;12935;50.782;6.074;2023-05-07T09:29:38;158.93;;;144.97;;
24857;SDS011;12935;50.782;6.074;2023-05-07T09:32:04;138.37;;;123.27;;
24857;SDS011;12935;50.782;6.074;2023-05-07T09:34:30;77.93;;;69.77;;
24857;SDS011;12935;50.782;6.074;2023-05-07T09:36:58;89.00;;;79.33;;
24857;SDS011;12935;50.782;6.074;2023-05-07T09:39:24;169.00;;;152.57;;
24857;SDS011;12935;50.782;6.074;2023-05-07T09:41:50;124.60;;;112.43;;
24857;SDS011;12935;50.782;6.074;2023-05-07T09:44:17;106.97;;;96.77;;
24857;SDS011;12935;50.782;6.074;2023-05-07T09:46:43;113.73;;;103.00;;
24857;SDS011;12935;50.782;6.074;2023-05-07T09:49:13;143.67;;;129.80;;
24857;SDS011;12935;50.782;6.074;2023-05-07T09:51:52;116.87;;;106.07;;
24857;SDS011;12935;50.782;6.074;2023-05-07T09:54:18;107.63;;;92.17;;
24857;SDS011;12935;50.782;6.074;2023-05-07T09:56:47;110.47;;;88.23;;
24857;SDS011;12935;50.782;6.074;2023-05-07T09:59:14;127.00;;;115.10;;
24857;SDS011;12935;50.782;6.074;2023-05-07T10:01:41;100.53;;;91.73;;
24857;SDS011;12935;50.782;6.074;2023-05-07T10:04:08;108.63;;;89.87;;
24857;SDS011;12935;50.782;6.074;2023-05-07T10:06:34;85.33;;;76.70;;
24857;SDS011;12935;50.782;6.074;2023-05-07T10:09:00;235.83;;;213.90;;
24857;SDS011;12935;50.782;6.074;2023-05-07T10:11:27;231.47;;;211.37;;
24857;SDS011;12935;50.782;6.074;2023-05-07T10:13:53;209.43;;;193.23;;
24857;SDS011;12935;50.782;6.074;2023-05-07T10:16:19;188.97;;;172.77;;
24857;SDS011;12935;50.782;6.074;2023-05-07T10:18:45;190.53;;;175.63;;
24857;SDS011;12935;50.782;6.074;2023-05-07T10:21:18;189.87;;;173.97;;
24857;SDS011;12935;50.782;6.074;2023-05-07T10:23:45;165.27;;;150.80;;
24857;SDS011;12935;50.782;6.074;2023-05-07T10:26:20;111.07;;;101.30;;
24857;SDS011;12935;50.782;6.074;2023-05-07T10:28:49;130.47;;;119.67;;
24857;SDS011;12935;50.782;6.074;2023-05-07T10:31:38;201.20;;;183.53;;
24857;SDS011;12935;50.782;6.074;2023-05-07T10:34:15;182.67;;;164.03;;
24857;SDS011;12935;50.782;6.074;2023-05-07T10:36:43;144.73;;;131.83;;
24857;SDS011;12935;50.782;6.074;2023-05-07T10:39:09;114.30;;;99.47;;
24857;SDS011;12935;50.782;6.074;2023-05-07T10:41:35;160.63;;;143.37;;
24857;SDS011;12935;50.782;6.074;2023-05-07T10:44:01;149.60;;;134.80;;
24857;SDS011;12935;50.782;6.074;2023-05-07T10:46:27;128.37;;;116.03;;
24857;SDS011;12935;50.782;6.074;2023-05-07T10:51:28;546.50;;;512.53;;
24857;SDS011;12935;50.782;6.074;2023-05-07T10:56:43;531.97;;;496.93;;
24857;SDS011;12935;50.782;6.074;2023-05-07T11:04:16;346.73;;;321.03;;
24857;SDS011;12935;50.782;6.074;2023-05-07T11:07:00;279.83;;;259.27;;
24857;SDS011;12935;50.782;6.074;2023-05-07T11:15:09;351.23;;;323.57;;
24857;SDS011;12935;50.782;6.074;2023-05-07T11:17:51;255.10;;;237.00;;
24857;SDS011;12935;50.782;6.074;2023-05-07T11:20:19;356.53;;;331.97;;
24857;SDS011;12935;50.782;6.074;2023-05-07T11:22:45;318.10;;;295.30;;
24857;SDS011;12935;50.782;6.074;2023-05-07T11:25:11;283.07;;;259.43;;
24857;SDS011;12935;50.782;6.074;2023-05-07T11:27:44;306.03;;;282.23;;
24857;SDS011;12935;50.782;6.074;2023-05-07T11:30:09;417.53;;;386.53;;
24857;SDS011;12935;50.782;6.074;2023-05-07T11:32:36;360.97;;;335.60;;
24857;SDS011;12935;50.782;6.074;2023-05-07T11:35:01;326.93;;;301.83;;
24857;SDS011;12935;50.782;6.074;2023-05-07T11:37:27;331.07;;;307.23;;
24857;SDS011;12935;50.782;6.074;2023-05-07T11:40:04;421.90;;;394.83;;
24857;SDS011;12935;50.782;6.074;2023-05-07T11:42:36;384.73;;;360.00;;
24857;SDS011;12935;50.782;6.074;2023-05-07T11:45:03;403.13;;;371.83;;
24857;SDS011;12935;50.782;6.074;2023-05-07T11:47:30;367.97;;;339.73;;
24857;SDS011;12935;50.782;6.074;2023-05-07T11:49:56;510.07;;;476.30;;
24857;SDS011;12935;50.782;6.074;2023-05-07T11:52:22;432.57;;;403.17;;
24857;SDS011;12935;50.782;6.074;2023-05-07T11:54:53;291.00;;;267.77;;
24857;SDS011;12935;50.782;6.074;2023-05-07T11:57:23;409.83;;;380.93;;
24857;SDS011;12935;50.782;6.074;2023-05-07T11:59:52;496.53;;;463.20;;
24857;SDS011;12935;50.782;6.074;2023-05-07T12:02:18;460.80;;;429.93;;
24857;SDS011;12935;50.782;6.074;2023-05-07T12:04:44;405.57;;;378.00;;
24857;SDS011;12935;50.782;6.074;2023-05-07T12:07:13;369.53;;;340.87;;
24857;SDS011;12935;50.782;6.074;2023-05-07T12:09:42;530.77;;;496.23;;
24857;SDS011;12935;50.782;6.074;2023-05-07T12:12:09;472.87;;;441.70;;
24857;SDS011;12935;50.782;6.074;2023-05-07T12:14:37;466.73;;;435.97;;
24857;SDS011;12935;50.782;6.074;2023-05-07T12:17:04;455.27;;;419.67;;
24857;SDS011;12935;50.782;6.074;2023-05-07T12:19:30;592.70;;;555.00;;
24857;SDS011;12935;50.782;6.074;2023-05-07T12:21:55;538.80;;;504.80;;
24857;SDS011;12935;50.782;6.074;2023-05-07T12:24:21;471.87;;;440.03;;
24857;SDS011;12935;50.782;6.074;2023-05-07T12:26:46;447.87;;;418.87;;
24857;SDS011;12935;50.782;6.074;2023-05-07T12:29:13;700.97;;;659.53;;
24857;SDS011;12935;50.782;6.074;2023-05-07T12:31:40;548.20;;;512.10;;
24857;SDS011;12935;50.782;6.074;2023-05-07T12:34:06;510.70;;;477.47;;
24857;SDS011;12935;50.782;6.074;2023-05-07T12:36:38;472.63;;;441.93;;
24857;SDS011;12935;50.782;6.074;2023-05-07T12:39:05;562.90;;;527.67;;
24857;SDS011;12935;50.782;6.074;2023-05-07T12:41:52;527.97;;;493.23;;
24857;SDS011;12935;50.782;6.074;2023-05-07T12:44:19;458.43;;;427.83;;
24857;SDS011;12935;50.782;6.074;2023-05-07T12:46:44;373.30;;;347.83;;
24857;SDS011;12935;50.782;6.074;2023-05-07T12:49:11;401.67;;;370.97;;
24857;SDS011;12935;50.782;6.074;2023-05-07T12:51:37;364.77;;;338.97;;
24857;SDS011;12935;50.782;6.074;2023-05-07T12:54:02;365.53;;;336.00;;
24857;SDS011;12935;50.782;6.074;2023-05-07T12:56:30;284.60;;;261.87;;
24857;SDS011;12935;50.782;6.074;2023-05-07T12:58:57;307.80;;;283.77;;
24857;SDS011;12935;50.782;6.074;2023-05-07T13:01:28;258.07;;;237.90;;
24857;SDS011;12935;50.782;6.074;2023-05-07T13:03:54;303.20;;;280.73;;
24857;SDS011;12935;50.782;6.074;2023-05-07T13:06:20;204.20;;;187.37;;
24857;SDS011;12935;50.782;6.074;2023-05-07T13:08:45;199.20;;;182.00;;
24857;SDS011;12935;50.782;6.074;2023-05-07T13:11:11;235.00;;;212.60;;
24857;SDS011;12935;50.782;6.074;2023-05-07T13:13:37;168.67;;;153.27;;
24857;SDS011;12935;50.782;6.074;2023-05-07T13:16:06;166.07;;;151.03;;
24857;SDS011;12935;50.782;6.074;2023-05-07T13:18:33;150.90;;;135.90;;
24857;SDS011;12935;50.782;6.074;2023-05-07T13:20:59;209.80;;;191.53;;
24857;SDS011;12935;50.782;6.074;2023-05-07T13:23:25;119.77;;;108.83;;
24857;SDS011;12935;50.782;6.074;2023-05-07T13:25:52;108.90;;;98.60;;
24857;SDS011;12935;50.782;6.074;2023-05-07T13:28:20;95.47;;;86.70;;
24857;SDS011;12935;50.782;6.074;2023-05-07T13:30:46;235.63;;;216.73;;
24857;SDS011;12935;50.782;6.074;2023-05-07T13:33:11;180.40;;;165.50;;
24857;SDS011;12935;50.782;6.074;2023-05-07T13:35:37;189.93;;;171.93;;
24857;SDS011;12935;50.782;6.074;2023-05-07T13:38:02;190.70;;;172.73;;
24857;SDS011;12935;50.782;6.074;2023-05-07T13:40:28;214.80;;;197.50;;
24857;SDS011;12935;50.782;6.074;2023-05-07T13:42:53;200.60;;;183.33;;
24857;SDS011;12935;50.782;6.074;2023-05-07T13:45:23;186.47;;;171.03;;
24857;SDS011;12935;50.782;6.074;2023-05-07T13:47:50;188.67;;;172.30;;
24857;SDS011;12935;50.782;6.074;2023-05-07T13:50:16;223.30;;;204.40;;
24857;SDS011;12935;50.782;6.074;2023-05-07T13:52:42;205.97;;;189.03;;
24857;SDS011;12935;50.782;6.074;2023-05-07T13:55:08;184.00;;;166.87;;
24857;SDS011;12935;50.782;6.074;2023-05-07T13:57:35;180.93;;;163.87;;
24857;SDS011;12935;50.782;6.074;2023-05-07T14:00:00;213.93;;;193.03;;
24857;SDS011;12935;50.782;6.074;2023-05-07T14:02:26;196.07;;;179.37;;
24857;SDS011;12935;50.782;6.074;2023-05-07T14:04:51;175.23;;;159.70;;
24857;SDS011;12935;50.782;6.074;2023-05-07T14:07:16;165.13;;;150.13;;
24857;SDS011;12935;50.782;6.074;2023-05-07T14:09:42;210.90;;;194.40;;
24857;SDS011;12935;50.782;6.074;2023-05-07T14:12:07;186.10;;;170.33;;